createdAt,value
2018-08-18T00:00:17.468Z,15.93
2018-08-18T00:01:17.472Z,15.92
2018-08-18T00:02:17.441Z,15.90
2018-08-18T00:03:17.429Z,15.96
2018-08-18T00:04:17.410Z,15.97
2018-08-18T00:05:17.403Z,15.84
2018-08-18T00:06:17.397Z,15.78
2018-08-18T00:07:17.370Z,15.89
2018-08-18T00:08:17.354Z,15.89
2018-08-18T00:09:17.340Z,15.89
2018-08-18T00:10:17.323Z,15.74
2018-08-18T00:11:17.327Z,15.82
2018-08-18T00:12:17.312Z,15.71
2018-08-18T00:13:17.279Z,15.72
2018-08-18T00:14:17.265Z,15.75
2018-08-18T00:15:17.253Z,15.71
2018-08-18T00:16:17.236Z,15.72
2018-08-18T00:17:17.225Z,15.76
2018-08-18T00:18:17.223Z,15.64
2018-08-18T00:19:17.194Z,15.67
2018-08-18T00:20:17.178Z,15.68
2018-08-18T00:21:17.162Z,15.64
2018-08-18T00:22:17.159Z,15.68
2018-08-18T00:23:17.131Z,15.64
2018-08-18T00:24:17.128Z,15.62
2018-08-18T00:25:17.103Z,15.59
2018-08-18T00:26:17.086Z,15.59
2018-08-18T00:27:17.071Z,15.54
2018-08-18T00:28:17.069Z,15.56
2018-08-18T00:29:17.044Z,15.47
2018-08-18T00:30:17.029Z,15.46
2018-08-18T00:31:17.013Z,15.36
2018-08-18T00:32:16.997Z,15.49
2018-08-18T00:33:16.996Z,15.43
2018-08-18T00:34:17.052Z,15.39
2018-08-18T00:35:16.966Z,15.44
2018-08-18T00:36:16.938Z,15.41
2018-08-18T00:37:16.923Z,15.38
2018-08-18T00:38:16.922Z,15.32
2018-08-18T00:39:16.893Z,15.34
2018-08-18T00:40:16.890Z,15.32
2018-08-18T00:41:16.862Z,15.35
2018-08-18T00:42:16.846Z,15.35
2018-08-18T00:43:16.832Z,15.35
2018-08-18T00:44:16.816Z,15.31
2018-08-18T00:45:16.816Z,15.32
2018-08-18T00:46:16.782Z,15.28
2018-08-18T00:47:16.770Z,15.25
2018-08-18T00:48:16.752Z,15.23
2018-08-18T00:49:16.735Z,15.21
2018-08-18T00:50:16.729Z,15.23
2018-08-18T00:51:16.724Z,15.14
2018-08-18T00:52:16.694Z,15.14
2018-08-18T00:53:16.677Z,15.20
2018-08-18T00:54:16.667Z,15.10
2018-08-18T00:55:16.644Z,15.09
2018-08-18T00:56:16.648Z,15.10
2018-08-18T00:57:16.620Z,15.13
2018-08-18T00:58:16.605Z,15.06
2018-08-18T00:59:16.586Z,14.99
2018-08-18T01:00:16.575Z,15.02
2018-08-18T01:01:16.573Z,14.92
2018-08-18T01:02:16.540Z,14.98
2018-08-18T01:03:16.524Z,14.98
2018-08-18T01:04:16.508Z,14.92
2018-08-18T01:05:16.498Z,14.99
2018-08-18T01:06:16.476Z,14.98
2018-08-18T01:07:16.483Z,14.96
2018-08-18T01:08:16.451Z,14.96
2018-08-18T01:09:16.433Z,14.99
2018-08-18T01:10:16.421Z,15.01
2018-08-18T01:11:16.469Z,14.92
2018-08-18T01:12:16.483Z,14.89
2018-08-18T01:13:16.378Z,14.81
2018-08-18T01:14:16.492Z,14.88
2018-08-18T01:15:16.344Z,14.88
2018-08-18T01:16:16.333Z,14.89
2018-08-18T01:17:16.331Z,14.89
2018-08-18T01:18:16.295Z,14.81
2018-08-18T01:19:16.279Z,14.78
2018-08-18T01:20:16.268Z,14.81
2018-08-18T01:21:16.282Z,14.80
2018-08-18T01:22:16.235Z,14.77
2018-08-18T01:23:16.232Z,14.72
2018-08-18T01:24:16.207Z,14.62
2018-08-18T01:25:16.187Z,14.64
2018-08-18T01:26:16.172Z,14.64
2018-08-18T01:27:16.163Z,14.69
2018-08-18T01:28:16.156Z,14.61
2018-08-18T01:29:16.123Z,14.61
2018-08-18T01:30:16.108Z,14.58
2018-08-18T01:31:16.097Z,14.65
2018-08-18T01:32:16.081Z,14.64
2018-08-18T01:33:16.078Z,14.62
2018-08-18T01:34:16.060Z,14.61
2018-08-18T01:35:16.033Z,14.60
2018-08-18T01:36:16.021Z,14.51
2018-08-18T01:37:16.004Z,14.55
2018-08-18T01:38:15.997Z,14.55
2018-08-18T01:39:15.970Z,14.60
2018-08-18T01:40:15.956Z,14.54
2018-08-18T01:41:15.941Z,14.61
2018-08-18T01:42:15.939Z,14.69
2018-08-18T01:43:15.909Z,14.60
2018-08-18T01:44:15.894Z,14.62
2018-08-18T01:45:15.893Z,14.69
2018-08-18T01:46:15.867Z,14.61
2018-08-18T01:47:15.849Z,14.75
2018-08-18T01:48:15.847Z,14.77
2018-08-18T01:49:15.811Z,14.84
2018-08-18T01:50:15.837Z,14.89
2018-08-18T01:51:15.787Z,14.91
2018-08-18T01:52:15.770Z,14.86
2018-08-18T01:53:15.756Z,14.86
2018-08-18T01:54:15.745Z,14.83
2018-08-18T01:55:15.728Z,14.80
2018-08-18T01:56:15.724Z,14.80
2018-08-18T01:57:15.691Z,14.81
2018-08-18T01:58:15.683Z,14.80
2018-08-18T01:59:15.660Z,14.80
2018-08-18T02:00:15.661Z,14.91
2018-08-18T02:01:15.632Z,14.83
2018-08-18T02:02:15.632Z,14.77
2018-08-18T02:03:15.599Z,14.83
2018-08-18T02:04:15.585Z,14.72
2018-08-18T02:05:15.565Z,14.83
2018-08-18T02:06:15.587Z,14.88
2018-08-18T02:07:15.540Z,14.86
2018-08-18T02:08:15.518Z,14.88
2018-08-18T02:09:15.510Z,14.86
2018-08-18T02:10:15.491Z,14.84
2018-08-18T02:11:15.476Z,14.95
2018-08-18T02:12:15.470Z,14.91
2018-08-18T02:13:15.440Z,14.96
2018-08-18T02:14:15.426Z,14.95
2018-08-18T02:15:15.413Z,14.96
2018-08-18T02:16:15.397Z,14.88
2018-08-18T02:17:15.421Z,14.88
2018-08-18T02:18:15.362Z,14.89
2018-08-18T02:19:15.351Z,14.92
2018-08-18T02:20:15.335Z,14.91
2018-08-18T02:21:15.320Z,14.91
2018-08-18T02:22:15.299Z,14.88
2018-08-18T02:23:15.297Z,14.98
2018-08-18T02:24:15.273Z,14.94
2018-08-18T02:25:15.255Z,14.94
2018-08-18T02:26:15.239Z,14.99
2018-08-18T02:27:15.219Z,14.96
2018-08-18T02:28:15.224Z,14.98
2018-08-18T02:29:15.208Z,14.92
2018-08-18T02:30:15.178Z,14.94
2018-08-18T02:31:15.159Z,15.06
2018-08-18T02:32:15.147Z,14.96
2018-08-18T02:33:15.144Z,15.02
2018-08-18T02:34:15.113Z,14.91
2018-08-18T02:35:15.092Z,14.98
2018-08-18T02:36:15.078Z,14.99
2018-08-18T02:37:15.064Z,14.92
2018-08-18T02:38:15.063Z,14.91
2018-08-18T02:39:15.028Z,14.91
2018-08-18T02:40:15.131Z,14.88
2018-08-18T02:41:15.000Z,14.84
2018-08-18T02:42:14.985Z,14.88
2018-08-18T02:43:15.005Z,14.89
2018-08-18T02:44:14.955Z,14.94
2018-08-18T02:45:14.933Z,14.83
2018-08-18T02:46:14.921Z,14.81
2018-08-18T02:47:14.904Z,14.80
2018-08-18T02:48:14.889Z,14.83
2018-08-18T02:49:14.888Z,14.75
2018-08-18T02:50:14.854Z,14.77
2018-08-18T02:51:14.840Z,14.77
2018-08-18T02:52:14.828Z,14.77
2018-08-18T02:53:14.809Z,14.70
2018-08-18T02:54:14.809Z,14.70
2018-08-18T02:55:14.791Z,14.64
2018-08-18T02:56:14.760Z,14.58
2018-08-18T02:57:14.745Z,14.65
2018-08-18T02:58:14.727Z,14.61
2018-08-18T02:59:14.728Z,14.58
2018-08-18T03:00:14.694Z,14.65
2018-08-18T03:01:14.681Z,14.58
2018-08-18T03:02:14.657Z,14.52
2018-08-18T03:03:14.662Z,14.57
2018-08-18T03:04:14.643Z,14.55
2018-08-18T03:05:14.617Z,14.57
2018-08-18T03:06:14.598Z,14.52
2018-08-18T03:07:14.582Z,14.64
2018-08-18T03:08:14.567Z,14.61
2018-08-18T03:09:14.564Z,14.65
2018-08-18T03:10:14.533Z,14.62
2018-08-18T03:11:14.518Z,14.68
2018-08-18T03:12:14.538Z,14.62
2018-08-18T03:13:14.481Z,14.61
2018-08-18T03:14:14.470Z,14.64
2018-08-18T03:15:14.452Z,14.64
2018-08-18T03:16:14.436Z,14.61
2018-08-18T03:17:14.419Z,14.61
2018-08-18T03:18:14.421Z,14.68
2018-08-18T03:19:14.385Z,14.61
2018-08-18T03:20:14.372Z,14.64
2018-08-18T03:21:14.355Z,14.64
2018-08-18T03:22:14.339Z,14.62
2018-08-18T03:23:14.336Z,14.64
2018-08-18T03:24:14.320Z,14.61
2018-08-18T03:25:14.285Z,14.57
2018-08-18T03:26:14.274Z,14.54
2018-08-18T03:27:14.271Z,14.51
2018-08-18T03:28:14.258Z,14.57
2018-08-18T03:29:14.283Z,14.50
2018-08-18T03:30:14.210Z,14.50
2018-08-18T03:31:14.218Z,14.50
2018-08-18T03:32:14.176Z,14.61
2018-08-18T03:33:14.162Z,14.55
2018-08-18T03:34:14.145Z,14.55
2018-08-18T03:35:14.127Z,14.58
2018-08-18T03:36:14.112Z,14.46
2018-08-18T03:37:14.110Z,14.54
2018-08-18T03:38:14.079Z,14.52
2018-08-18T03:39:14.077Z,14.51
2018-08-18T03:40:14.049Z,14.37
2018-08-18T03:41:14.028Z,14.37
2018-08-18T03:42:14.013Z,14.45
2018-08-18T03:43:13.996Z,14.36
2018-08-18T03:44:13.996Z,14.45
2018-08-18T03:45:13.964Z,14.33
2018-08-18T03:46:13.948Z,14.40
2018-08-18T03:47:13.933Z,14.47
2018-08-18T03:48:13.911Z,14.46
2018-08-18T03:49:13.914Z,14.50
2018-08-18T03:50:13.884Z,14.39
2018-08-18T03:51:13.865Z,14.36
2018-08-18T03:52:13.874Z,14.33
2018-08-18T03:53:13.835Z,14.32
2018-08-18T03:54:13.834Z,14.24
2018-08-18T03:55:13.805Z,14.22
2018-08-18T03:56:13.789Z,14.24
2018-08-18T03:57:13.766Z,14.25
2018-08-18T03:58:13.751Z,14.28
2018-08-18T03:59:13.738Z,14.22
2018-08-18T04:00:13.730Z,14.24
2018-08-18T04:01:13.707Z,14.27
2018-08-18T04:02:13.711Z,14.25
2018-08-18T04:03:13.671Z,14.24
2018-08-18T04:04:13.653Z,14.28
2018-08-18T04:05:13.650Z,14.25
2018-08-18T04:06:13.617Z,14.20
2018-08-18T04:07:13.605Z,14.28
2018-08-18T04:08:13.589Z,14.27
2018-08-18T04:09:13.602Z,14.17
2018-08-18T04:10:13.572Z,14.27
2018-08-18T04:11:13.537Z,14.17
2018-08-18T04:12:13.525Z,14.21
2018-08-18T04:13:13.509Z,14.22
2018-08-18T04:14:13.489Z,14.25
2018-08-18T04:15:13.484Z,14.25
2018-08-18T04:16:13.473Z,14.29
2018-08-18T04:17:13.439Z,14.21
2018-08-18T04:18:13.424Z,14.17
2018-08-18T04:19:13.408Z,14.14
2018-08-18T04:20:13.405Z,14.09
2018-08-18T04:21:13.385Z,14.03
2018-08-18T04:22:13.358Z,13.95
2018-08-18T04:23:13.341Z,13.97
2018-08-18T04:24:13.326Z,13.95
2018-08-18T04:25:13.397Z,13.92
2018-08-18T04:26:13.292Z,13.91
2018-08-18T04:27:13.276Z,13.95
2018-08-18T04:28:13.260Z,13.97
2018-08-18T04:29:13.243Z,14.03
2018-08-18T04:30:13.264Z,13.99
2018-08-18T04:31:13.221Z,14.04
2018-08-18T04:32:13.191Z,14.07
2018-08-18T04:33:13.177Z,14.07
2018-08-18T04:34:13.160Z,14.09
2018-08-18T04:35:13.200Z,14.07
2018-08-18T04:36:13.143Z,14.09
2018-08-18T04:37:13.108Z,14.07
2018-08-18T04:38:13.091Z,14.10
2018-08-18T04:39:13.641Z,14.15
2018-08-18T04:40:13.071Z,14.18
2018-08-18T04:41:13.043Z,14.18
2018-08-18T04:42:13.057Z,14.20
2018-08-18T04:43:13.012Z,14.24
2018-08-18T04:44:12.992Z,14.29
2018-08-18T04:45:13.089Z,14.37
2018-08-18T04:46:12.959Z,14.36
2018-08-18T04:47:12.958Z,14.40
2018-08-18T04:48:12.928Z,14.52
2018-08-18T04:49:12.907Z,14.52
2018-08-18T04:50:12.895Z,14.54
2018-08-18T04:51:35.120Z,14.46
2018-08-18T04:52:12.875Z,14.51
2018-08-18T04:53:12.852Z,14.52
2018-08-18T04:54:12.827Z,14.52
2018-08-18T04:55:12.820Z,14.36
2018-08-18T04:56:12.813Z,14.42
2018-08-18T04:57:12.778Z,14.32
2018-08-18T04:58:12.763Z,14.28
2018-08-18T04:59:12.782Z,14.33
2018-08-18T05:00:12.730Z,14.33
2018-08-18T05:01:12.729Z,14.28
2018-08-18T05:02:12.695Z,14.27
2018-08-18T05:03:12.695Z,14.22
2018-08-18T05:04:12.706Z,14.33
2018-08-18T05:05:12.704Z,14.29
2018-08-18T05:06:12.645Z,14.28
2018-08-18T05:07:12.613Z,14.32
2018-08-18T05:08:12.609Z,14.20
2018-08-18T05:09:12.580Z,14.24
2018-08-18T05:10:12.564Z,14.20
2018-08-18T05:11:12.548Z,14.25
2018-08-18T05:12:12.534Z,14.37
2018-08-18T05:13:12.527Z,14.45
2018-08-18T05:14:12.493Z,14.57
2018-08-18T05:15:12.548Z,14.57
2018-08-18T05:16:12.464Z,14.60
2018-08-18T05:17:12.451Z,14.60
2018-08-18T05:18:12.447Z,14.69
2018-08-18T05:19:12.453Z,14.68
2018-08-18T05:20:12.400Z,14.73
2018-08-18T05:21:12.378Z,14.75
2018-08-18T05:22:12.367Z,14.77
2018-08-18T05:23:12.369Z,14.77
2018-08-18T05:24:12.334Z,14.77
2018-08-18T05:25:12.318Z,14.84
2018-08-18T05:26:12.297Z,14.80
2018-08-18T05:27:12.284Z,14.77
2018-08-18T05:28:12.284Z,14.81
2018-08-18T05:29:12.267Z,14.78
2018-08-18T05:30:12.267Z,14.88
2018-08-18T05:31:12.217Z,14.83
2018-08-18T05:32:12.211Z,14.84
2018-08-18T05:33:12.184Z,14.92
2018-08-18T05:34:12.169Z,14.94
2018-08-18T05:35:12.153Z,14.98
2018-08-18T05:36:12.154Z,14.94
2018-08-18T05:37:12.122Z,14.99
2018-08-18T05:38:12.103Z,15.03
2018-08-18T05:39:12.092Z,15.09
2018-08-18T05:40:12.091Z,15.10
2018-08-18T05:41:12.070Z,15.16
2018-08-18T05:42:12.044Z,15.21
2018-08-18T05:43:12.023Z,15.19
2018-08-18T05:44:12.063Z,15.31
2018-08-18T05:45:11.992Z,15.29
2018-08-18T05:46:11.992Z,15.35
2018-08-18T05:47:12.008Z,15.32
2018-08-18T05:48:11.949Z,15.47
2018-08-18T05:49:11.929Z,15.41
2018-08-18T05:50:11.913Z,15.50
2018-08-18T05:51:11.912Z,15.57
2018-08-18T05:52:11.883Z,15.64
2018-08-18T05:53:11.865Z,15.65
2018-08-18T05:54:11.852Z,15.72
2018-08-18T05:55:11.836Z,15.69
2018-08-18T05:56:11.833Z,15.67
2018-08-18T05:57:11.801Z,15.80
2018-08-18T05:58:11.800Z,15.83
2018-08-18T05:59:11.766Z,15.83
2018-08-18T06:00:11.755Z,15.90
2018-08-18T06:01:11.752Z,15.93
2018-08-18T06:02:11.725Z,15.94
2018-08-18T06:03:11.725Z,15.97
2018-08-18T06:04:11.694Z,16.01
2018-08-18T06:05:11.670Z,16.01
2018-08-18T06:06:11.660Z,16.12
2018-08-18T06:07:11.653Z,16.12
2018-08-18T06:08:11.647Z,16.12
2018-08-18T06:09:11.612Z,16.15
2018-08-18T06:10:11.598Z,16.23
2018-08-18T06:11:11.580Z,16.27
2018-08-18T06:12:11.626Z,16.30
2018-08-18T06:13:11.551Z,16.25
2018-08-18T06:14:11.533Z,16.27
2018-08-18T06:15:11.516Z,16.27
2018-08-18T06:16:11.502Z,16.35
2018-08-18T06:17:11.489Z,16.34
2018-08-18T06:18:11.481Z,16.39
2018-08-18T06:19:11.458Z,16.28
2018-08-18T06:20:11.442Z,16.35
2018-08-18T06:21:11.424Z,16.34
2018-08-18T06:22:11.410Z,16.42
2018-08-18T06:23:11.406Z,16.49
2018-08-18T06:24:11.381Z,16.49
2018-08-18T06:25:11.363Z,16.48
2018-08-18T06:26:11.344Z,16.49
2018-08-18T06:27:11.333Z,16.52
2018-08-18T06:28:11.317Z,16.58
2018-08-18T06:29:11.324Z,16.61
2018-08-18T06:30:11.284Z,16.76
2018-08-18T06:31:11.265Z,16.86
2018-08-18T06:32:11.254Z,16.81
2018-08-18T06:33:11.236Z,16.85
2018-08-18T06:34:11.242Z,16.97
2018-08-18T06:35:11.208Z,16.91
2018-08-18T06:36:11.233Z,17.00
2018-08-18T06:37:11.173Z,17.04
2018-08-18T06:38:11.233Z,17.14
2018-08-18T06:39:11.146Z,17.16
2018-08-18T06:40:11.145Z,17.16
2018-08-18T06:41:11.211Z,17.22
2018-08-18T06:42:11.102Z,17.08
2018-08-18T06:43:11.089Z,17.16
2018-08-18T06:44:11.069Z,17.19
2018-08-18T06:45:11.068Z,17.15
2018-08-18T06:46:11.036Z,17.23
2018-08-18T06:47:11.024Z,17.28
2018-08-18T06:48:11.023Z,17.36
2018-08-18T06:49:10.994Z,17.41
2018-08-18T06:50:10.980Z,17.49
2018-08-18T06:51:10.984Z,17.44
2018-08-18T06:52:10.953Z,17.54
2018-08-18T06:53:10.932Z,17.51
2018-08-18T06:54:10.920Z,17.62
2018-08-18T06:55:11.088Z,17.81
2018-08-18T06:56:10.910Z,17.78
2018-08-18T06:57:10.873Z,17.79
2018-08-18T06:58:10.858Z,17.82
2018-08-18T06:59:10.845Z,17.77
2018-08-18T07:00:10.829Z,17.81
2018-08-18T07:01:10.829Z,17.89
2018-08-18T07:02:10.800Z,17.81
2018-08-18T07:03:10.784Z,17.89
2018-08-18T07:04:10.773Z,17.86
2018-08-18T07:05:10.757Z,18.00
2018-08-18T07:06:10.754Z,17.93
2018-08-18T07:07:10.720Z,18.00
2018-08-18T07:08:10.709Z,18.00
2018-08-18T07:09:10.691Z,18.03
2018-08-18T07:10:10.688Z,18.08
2018-08-18T07:11:10.675Z,18.11
2018-08-18T07:12:10.646Z,18.08
2018-08-18T07:13:10.652Z,18.23
2018-08-18T07:14:10.621Z,18.21
2018-08-18T07:15:10.605Z,18.25
2018-08-18T07:16:10.607Z,18.26
2018-08-18T07:17:10.572Z,18.25
2018-08-18T07:18:10.560Z,18.33
2018-08-18T07:19:10.544Z,18.36
2018-08-18T07:20:10.546Z,18.36
2018-08-18T07:21:10.516Z,18.42
2018-08-18T07:22:10.518Z,18.39
2018-08-18T07:23:10.504Z,18.44
2018-08-18T07:24:10.473Z,18.60
2018-08-18T07:25:10.457Z,18.54
2018-08-18T07:26:10.446Z,18.51
2018-08-18T07:27:10.430Z,18.65
2018-08-18T07:28:10.429Z,18.69
2018-08-18T07:29:10.549Z,18.66
2018-08-18T07:30:10.384Z,18.75
2018-08-18T07:31:10.371Z,18.78
2018-08-18T07:32:10.353Z,18.84
2018-08-18T07:33:10.342Z,18.91
2018-08-18T07:34:10.344Z,18.98
2018-08-18T07:35:10.316Z,19.02
2018-08-18T07:36:10.295Z,19.11
2018-08-18T07:37:10.321Z,19.08
2018-08-18T07:38:10.269Z,19.08
2018-08-18T07:39:10.300Z,19.22
2018-08-18T07:40:10.237Z,19.18
2018-08-18T07:41:10.229Z,19.19
2018-08-18T07:42:10.213Z,19.36
2018-08-18T07:43:10.198Z,19.37
2018-08-18T07:44:10.204Z,19.44
2018-08-18T07:45:10.170Z,19.37
2018-08-18T07:46:10.159Z,19.55
2018-08-18T07:47:10.138Z,19.55
2018-08-18T07:48:10.223Z,19.54
2018-08-18T07:49:10.127Z,19.43
2018-08-18T07:50:10.096Z,19.56
2018-08-18T07:51:10.081Z,19.63
2018-08-18T07:52:10.070Z,19.61
2018-08-18T07:53:10.144Z,19.59
2018-08-18T07:54:10.062Z,19.76
2018-08-18T07:55:10.028Z,19.69
2018-08-18T07:56:10.017Z,19.76
2018-08-18T07:57:10.005Z,19.83
2018-08-18T07:58:09.986Z,19.81
2018-08-18T07:59:09.987Z,19.84
2018-08-18T08:00:10.052Z,19.87
2018-08-18T08:01:09.945Z,20.03
2018-08-18T08:02:09.933Z,20.02
2018-08-18T08:03:09.917Z,20.05
2018-08-18T08:04:09.922Z,20.16
2018-08-18T08:05:09.926Z,20.13
2018-08-18T08:06:09.874Z,20.16
2018-08-18T08:07:09.857Z,20.18
2018-08-18T08:08:09.845Z,20.29
2018-08-18T08:09:09.849Z,20.41
2018-08-18T08:10:09.820Z,20.39
2018-08-18T08:11:09.809Z,20.31
2018-08-18T08:12:09.794Z,20.28
2018-08-18T08:13:09.775Z,20.43
2018-08-18T08:14:09.799Z,20.51
2018-08-18T08:15:09.753Z,20.51
2018-08-18T08:16:09.743Z,20.48
2018-08-18T08:17:09.724Z,20.50
2018-08-18T08:18:09.761Z,20.57
2018-08-18T08:19:10.659Z,20.69
2018-08-18T08:20:09.699Z,20.84
2018-08-18T08:21:09.688Z,20.95
2018-08-18T08:22:09.656Z,21.10
2018-08-18T08:23:09.637Z,21.04
2018-08-18T08:24:09.631Z,20.91
2018-08-18T08:25:09.617Z,20.87
2018-08-18T08:26:09.602Z,20.84
2018-08-18T08:27:09.610Z,20.97
2018-08-18T08:28:09.575Z,20.91
2018-08-18T08:29:09.560Z,20.94
2018-08-18T08:30:09.551Z,20.94
2018-08-18T08:31:09.538Z,21.01
2018-08-18T08:32:09.537Z,20.99
2018-08-18T08:33:09.508Z,21.09
2018-08-18T08:34:09.495Z,21.21
2018-08-18T08:35:09.480Z,21.32
2018-08-18T08:36:09.473Z,21.28
2018-08-18T08:37:09.474Z,21.29
2018-08-18T08:38:09.444Z,21.38
2018-08-18T08:39:09.428Z,21.29
2018-08-18T08:40:09.421Z,21.42
2018-08-18T08:41:09.401Z,21.59
2018-08-18T08:42:09.403Z,21.82
2018-08-18T08:43:09.414Z,21.72
2018-08-18T08:44:09.362Z,21.74
2018-08-18T08:45:09.351Z,21.86
2018-08-18T08:46:09.332Z,21.94
2018-08-18T08:47:09.326Z,21.88
2018-08-18T08:48:09.321Z,22.05
2018-08-18T08:49:09.345Z,22.02
2018-08-18T08:50:09.289Z,22.10
2018-08-18T08:51:09.273Z,22.30
2018-08-18T08:52:09.275Z,22.45
2018-08-18T08:53:09.249Z,22.57
2018-08-18T08:54:09.250Z,22.67
2018-08-18T08:55:09.221Z,22.88
2018-08-18T08:56:09.213Z,23.15
2018-08-18T08:57:09.196Z,23.46
2018-08-18T08:58:09.183Z,23.73
2018-08-18T08:59:09.186Z,23.70
2018-08-18T09:00:09.159Z,23.91
2018-08-18T09:01:09.147Z,24.15
2018-08-18T09:02:09.134Z,24.39
2018-08-18T09:03:09.137Z,24.34
2018-08-18T09:04:09.108Z,24.37
2018-08-18T09:05:09.097Z,24.43
2018-08-18T09:06:09.085Z,23.94
2018-08-18T09:07:09.072Z,23.50
2018-08-18T09:08:09.076Z,23.87
2018-08-18T09:09:09.047Z,24.30
2018-08-18T09:10:09.050Z,24.80
2018-08-18T09:11:09.025Z,25.18
2018-08-18T09:12:09.015Z,25.94
2018-08-18T09:13:08.998Z,26.57
2018-08-18T09:14:09.002Z,26.89
2018-08-18T09:15:08.977Z,27.21
2018-08-18T09:16:08.977Z,27.18
2018-08-18T09:17:08.951Z,26.66
2018-08-18T09:18:08.941Z,26.01
2018-08-18T09:19:08.930Z,26.02
2018-08-18T09:20:08.915Z,26.02
2018-08-18T09:21:08.915Z,25.61
2018-08-18T09:22:08.895Z,25.92
2018-08-18T09:23:08.881Z,25.72
2018-08-18T09:24:08.875Z,25.42
2018-08-18T09:25:08.919Z,25.38
2018-08-18T09:26:08.886Z,25.67
2018-08-18T09:27:08.833Z,26.37
2018-08-18T09:28:08.825Z,25.98
2018-08-18T09:29:08.813Z,25.30
2018-08-18T09:30:08.817Z,25.51
2018-08-18T09:31:08.802Z,25.40
2018-08-18T09:32:08.782Z,24.87
2018-08-18T09:33:08.769Z,23.78
2018-08-18T09:34:08.760Z,23.51
2018-08-18T09:35:08.758Z,23.70
2018-08-18T09:36:08.792Z,24.16
2018-08-18T09:37:08.730Z,24.13
2018-08-18T09:38:08.720Z,24.31
2018-08-18T09:39:08.713Z,25.06
2018-08-18T09:40:08.719Z,24.93
2018-08-18T09:41:08.694Z,24.73
2018-08-18T09:42:08.689Z,24.52
2018-08-18T09:43:08.673Z,24.99
2018-08-18T09:44:08.663Z,25.05
2018-08-18T09:45:08.671Z,24.99
2018-08-18T09:46:08.653Z,24.42
2018-08-18T09:47:08.639Z,24.06
2018-08-18T09:48:08.631Z,23.55
2018-08-18T09:49:08.621Z,23.63
2018-08-18T09:50:08.624Z,23.80
2018-08-18T09:51:08.604Z,24.55
2018-08-18T09:52:08.596Z,25.28
2018-08-18T09:53:08.586Z,26.48
2018-08-18T09:54:08.590Z,27.07
2018-08-18T09:55:08.568Z,27.13
2018-08-18T09:56:08.564Z,26.13
2018-08-18T09:57:08.552Z,26.43
2018-08-18T09:58:08.544Z,25.95
2018-08-18T09:59:08.570Z,26.39
2018-08-18T10:00:08.531Z,26.84
2018-08-18T10:01:08.524Z,27.41
2018-08-18T10:02:08.529Z,27.40
2018-08-18T10:03:08.504Z,26.70
2018-08-18T10:04:08.513Z,26.75
2018-08-18T10:05:08.493Z,27.04
2018-08-18T10:06:08.487Z,27.36
2018-08-18T10:07:08.494Z,27.70
2018-08-18T10:08:08.475Z,27.79
2018-08-18T10:09:08.470Z,27.63
2018-08-18T10:10:08.464Z,27.93
2018-08-18T10:11:08.460Z,27.02
2018-08-18T10:12:08.472Z,26.05
2018-08-18T10:13:08.451Z,26.20
2018-08-18T10:14:08.444Z,26.54
2018-08-18T10:15:08.437Z,27.13
2018-08-18T10:16:08.446Z,27.28
2018-08-18T10:17:08.426Z,27.25
2018-08-18T10:18:08.436Z,27.60
2018-08-18T10:19:08.421Z,26.81
2018-08-18T10:20:08.411Z,26.58
2018-08-18T10:21:08.406Z,27.36
2018-08-18T10:22:08.398Z,27.81
2018-08-18T10:23:29.415Z,27.12
2018-08-18T10:24:08.396Z,28.06
2018-08-18T10:25:08.387Z,28.39
2018-08-18T10:26:08.383Z,28.34
2018-08-18T10:27:08.420Z,27.49
2018-08-18T10:28:08.381Z,26.94
2018-08-18T10:29:08.382Z,27.37
2018-08-18T10:30:08.370Z,27.19
2018-08-18T10:31:08.378Z,26.73
2018-08-18T10:32:08.357Z,26.99
2018-08-18T10:33:08.352Z,26.82
2018-08-18T10:34:08.364Z,26.21
2018-08-18T10:35:08.344Z,25.92
2018-08-18T10:36:08.343Z,25.73
2018-08-18T10:37:08.351Z,26.18
2018-08-18T10:38:08.332Z,26.05
2018-08-18T10:39:08.342Z,25.28
2018-08-18T10:40:08.322Z,24.90
2018-08-18T10:41:08.317Z,24.84
2018-08-18T10:42:08.320Z,26.07
2018-08-18T10:43:08.308Z,26.54
2018-08-18T10:44:08.316Z,27.04
2018-08-18T10:45:08.297Z,27.39
2018-08-18T10:46:08.291Z,28.21
2018-08-18T10:47:08.287Z,28.46
2018-08-18T10:48:08.279Z,28.85
2018-08-18T10:49:08.281Z,29.04
2018-08-18T10:50:08.290Z,28.67
2018-08-18T10:51:08.268Z,28.48
2018-08-18T10:52:08.268Z,28.76
2018-08-18T10:53:08.258Z,29.19
2018-08-18T10:54:08.255Z,29.98
2018-08-18T10:55:08.262Z,29.68
2018-08-18T10:56:08.250Z,27.67
2018-08-18T10:57:08.246Z,27.25
2018-08-18T10:58:08.240Z,26.84
2018-08-18T10:59:08.254Z,26.54
2018-08-18T11:00:08.233Z,26.09
2018-08-18T11:01:08.225Z,26.63
2018-08-18T11:02:08.222Z,27.82
2018-08-18T11:03:08.226Z,28.86
2018-08-18T11:04:08.230Z,29.37
2018-08-18T11:05:08.212Z,29.11
2018-08-18T11:06:08.204Z,28.68
2018-08-18T11:07:08.218Z,28.19
2018-08-18T11:08:08.202Z,28.41
2018-08-18T11:09:08.197Z,28.34
2018-08-18T11:10:08.193Z,28.80
2018-08-18T11:11:08.205Z,28.52
2018-08-18T11:12:08.188Z,29.14
2018-08-18T11:13:08.182Z,29.15
2018-08-18T11:14:08.178Z,29.39
2018-08-18T11:15:08.174Z,28.56
2018-08-18T11:16:08.188Z,28.40
2018-08-18T11:17:08.180Z,28.92
2018-08-18T11:18:08.166Z,29.16
2018-08-18T11:19:08.161Z,29.14
2018-08-18T11:20:08.171Z,28.48
2018-08-18T11:21:08.152Z,27.84
2018-08-18T11:22:08.152Z,27.62
2018-08-18T11:23:08.148Z,27.66
2018-08-18T11:24:08.148Z,28.07
2018-08-18T11:25:08.142Z,28.34
2018-08-18T11:26:08.164Z,28.78
2018-08-18T11:27:08.137Z,29.46
2018-08-18T11:28:08.138Z,29.11
2018-08-18T11:29:08.136Z,29.06
2018-08-18T11:30:08.125Z,28.61
2018-08-18T11:31:08.131Z,28.56
2018-08-18T11:32:08.139Z,29.12
2018-08-18T11:33:08.119Z,29.02
2018-08-18T11:34:08.118Z,28.22
2018-08-18T11:35:08.153Z,28.11
2018-08-18T11:36:08.114Z,27.31
2018-08-18T11:37:08.129Z,27.84
2018-08-18T11:38:08.104Z,28.36
2018-08-18T11:39:08.106Z,28.58
2018-08-18T11:40:08.103Z,28.88
2018-08-18T11:41:08.101Z,29.53
2018-08-18T11:42:08.100Z,29.65
2018-08-18T11:43:08.112Z,30.27
2018-08-18T11:44:08.093Z,29.89
2018-08-18T11:45:08.091Z,29.83
2018-08-18T11:46:08.089Z,29.78
2018-08-18T11:47:08.206Z,29.92
2018-08-18T11:48:08.098Z,29.87
2018-08-18T11:49:08.101Z,28.96
2018-08-18T11:50:08.092Z,28.11
2018-08-18T11:51:08.079Z,27.82
2018-08-18T11:52:08.074Z,28.25
2018-08-18T11:53:08.071Z,28.90
2018-08-18T11:54:08.088Z,28.76
2018-08-18T11:55:08.069Z,28.27
2018-08-18T11:56:08.067Z,28.24
2018-08-18T11:57:08.062Z,27.62
2018-08-18T11:58:08.062Z,27.47
2018-08-18T11:59:08.090Z,27.13
2018-08-18T12:00:08.059Z,26.94
2018-08-18T12:01:08.127Z,26.81
2018-08-18T12:02:08.123Z,27.39
2018-08-18T12:03:08.053Z,28.11
2018-08-18T12:04:08.047Z,28.39
2018-08-18T12:05:08.054Z,28.09
2018-08-18T12:06:08.039Z,28.43
2018-08-18T12:07:08.046Z,28.59
2018-08-18T12:08:08.033Z,29.04
2018-08-18T12:09:08.030Z,29.46
2018-08-18T12:10:08.028Z,29.34
2018-08-18T12:11:08.084Z,29.37
2018-08-18T12:12:08.057Z,28.68
2018-08-18T12:13:08.021Z,27.99
2018-08-18T12:14:08.020Z,27.94
2018-08-18T12:15:08.025Z,27.67
2018-08-18T12:16:08.742Z,27.54
2018-08-18T12:17:08.010Z,27.62
2018-08-18T12:18:08.008Z,27.93
2018-08-18T12:19:08.004Z,28.29
2018-08-18T12:20:29.074Z,27.36
2018-08-18T12:21:08.000Z,26.88
2018-08-18T12:22:08.005Z,27.28
2018-08-18T12:23:07.992Z,27.72
2018-08-18T12:24:07.988Z,28.24
2018-08-18T12:25:07.997Z,28.54
2018-08-18T12:26:07.982Z,28.76
2018-08-18T12:27:07.978Z,28.74
2018-08-18T12:28:07.977Z,28.64
2018-08-18T12:29:07.977Z,29.19
2018-08-18T12:30:07.995Z,29.12
2018-08-18T12:31:07.972Z,29.12
2018-08-18T12:32:07.967Z,28.66
2018-08-18T12:33:07.960Z,28.88
2018-08-18T12:34:07.960Z,29.09
2018-08-18T12:35:07.960Z,28.54
2018-08-18T12:36:08.001Z,28.17
2018-08-18T12:37:07.961Z,28.15
2018-08-18T12:38:07.947Z,28.15
2018-08-18T12:39:07.946Z,28.36
2018-08-18T12:40:07.941Z,28.55
2018-08-18T12:41:07.952Z,28.88
2018-08-18T12:42:07.937Z,29.11
2018-08-18T12:43:07.945Z,29.23
2018-08-18T12:44:07.931Z,29.48
2018-08-18T12:45:07.928Z,29.74
2018-08-18T12:46:07.944Z,29.76
2018-08-18T12:47:07.924Z,30.04
2018-08-18T12:48:07.935Z,29.74
2018-08-18T12:49:07.919Z,29.21
2018-08-18T12:50:08.014Z,28.33
2018-08-18T12:51:07.912Z,28.15
2018-08-18T12:52:07.912Z,28.15